sensor_id;sensor_type;location;lat;lon;timestamp;temperature;humidity
4487;DHT22;2256;48.740;9.106;2023-02-27T00:02:14;-2.90;99.90
4487;DHT22;2256;48.740;9.106;2023-02-27T00:04:40;-3.00;99.90
4487;DHT22;2256;48.740;9.106;2023-02-27T00:07:07;-3.00;99.90
4487;DHT22;2256;48.740;9.106;2023-02-27T00:09:34;-2.90;99.90
4487;DHT22;2256;48.740;9.106;2023-02-27T00:12:02;-2.90;99.90
4487;DHT22;2256;48.740;9.106;2023-02-27T00:14:29;-2.80;99.90
4487;DHT22;2256;48.740;9.106;2023-02-27T00:16:57;-2.90;99.90
4487;DHT22;2256;48.740;9.106;2023-02-27T00:19:27;-2.90;99.90
4487;DHT22;2256;48.740;9.106;2023-02-27T00:21:55;-2.90;99.90
4487;DHT22;2256;48.740;9.106;2023-02-27T00:24:22;-2.90;99.90
4487;DHT22;2256;48.740;9.106;2023-02-27T00:26:50;-2.80;99.90
4487;DHT22;2256;48.740;9.106;2023-02-27T00:29:17;-2.80;99.90
4487;DHT22;2256;48.740;9.106;2023-02-27T00:31:44;-2.80;99.90
4487;DHT22;2256;48.740;9.106;2023-02-27T00:34:10;-2.90;99.90
4487;DHT22;2256;48.740;9.106;2023-02-27T00:36:39;-2.90;99.90
4487;DHT22;2256;48.740;9.106;2023-02-27T00:39:06;-2.80;99.90
4487;DHT22;2256;48.740;9.106;2023-02-27T00:41:32;-2.80;99.90
4487;DHT22;2256;48.740;9.106;2023-02-27T00:43:59;-2.80;99.90
4487;DHT22;2256;48.740;9.106;2023-02-27T00:46:26;-2.80;99.90
4487;DHT22;2256;48.740;9.106;2023-02-27T00:48:53;-2.80;99.90
4487;DHT22;2256;48.740;9.106;2023-02-27T00:51:21;-2.80;99.90
4487;DHT22;2256;48.740;9.106;2023-02-27T00:53:49;-2.90;99.90
4487;DHT22;2256;48.740;9.106;2023-02-27T00:56:16;-2.90;99.90
4487;DHT22;2256;48.740;9.106;2023-02-27T00:58:42;-3.00;99.90
4487;DHT22;2256;48.740;9.106;2023-02-27T01:01:10;-2.90;99.90
4487;DHT22;2256;48.740;9.106;2023-02-27T01:03:37;-2.90;99.90
4487;DHT22;2256;48.740;9.106;2023-02-27T01:06:05;-3.00;99.90
4487;DHT22;2256;48.740;9.106;2023-02-27T01:08:32;-2.90;99.90
4487;DHT22;2256;48.740;9.106;2023-02-27T01:11:00;-3.00;99.90
4487;DHT22;2256;48.740;9.106;2023-02-27T01:13:27;-3.00;99.90
4487;DHT22;2256;48.740;9.106;2023-02-27T01:15:54;-3.00;99.90
4487;DHT22;2256;48.740;9.106;2023-02-27T01:18:21;-2.90;99.90
4487;DHT22;2256;48.740;9.106;2023-02-27T01:20:51;-2.90;99.90
4487;DHT22;2256;48.740;9.106;2023-02-27T01:23:18;-3.00;99.90
4487;DHT22;2256;48.740;9.106;2023-02-27T01:25:46;-3.00;99.90
4487;DHT22;2256;48.740;9.106;2023-02-27T01:28:15;-3.00;99.90
4487;DHT22;2256;48.740;9.106;2023-02-27T01:30:42;-3.10;99.90
4487;DHT22;2256;48.740;9.106;2023-02-27T01:33:09;-3.10;99.90
4487;DHT22;2256;48.740;9.106;2023-02-27T01:35:36;-3.10;99.90
4487;DHT22;2256;48.740;9.106;2023-02-27T01:38:03;-3.10;99.90
4487;DHT22;2256;48.740;9.106;2023-02-27T01:40:34;-2.90;99.90
4487;DHT22;2256;48.740;9.106;2023-02-27T01:43:01;-3.10;99.90
4487;DHT22;2256;48.740;9.106;2023-02-27T01:45:32;-3.10;99.90
4487;DHT22;2256;48.740;9.106;2023-02-27T01:48:12;-3.00;99.90
4487;DHT22;2256;48.740;9.106;2023-02-27T01:50:44;-3.10;99.90
4487;DHT22;2256;48.740;9.106;2023-02-27T01:53:12;-3.10;99.90
4487;DHT22;2256;48.740;9.106;2023-02-27T01:55:40;-3.10;99.90
4487;DHT22;2256;48.740;9.106;2023-02-27T01:58:10;-3.10;99.90
4487;DHT22;2256;48.740;9.106;2023-02-27T02:00:39;-3.10;99.90
4487;DHT22;2256;48.740;9.106;2023-02-27T02:03:16;-3.20;99.90
4487;DHT22;2256;48.740;9.106;2023-02-27T02:05:44;-3.20;99.90
4487;DHT22;2256;48.740;9.106;2023-02-27T02:08:15;-3.20;99.90
4487;DHT22;2256;48.740;9.106;2023-02-27T02:10:46;-3.30;99.90
4487;DHT22;2256;48.740;9.106;2023-02-27T02:13:14;-3.20;99.90
4487;DHT22;2256;48.740;9.106;2023-02-27T02:15:48;-3.20;99.90
4487;DHT22;2256;48.740;9.106;2023-02-27T02:18:23;-3.10;99.90
4487;DHT22;2256;48.740;9.106;2023-02-27T02:24:39;-3.10;99.90
4487;DHT22;2256;48.740;9.106;2023-02-27T02:27:27;-3.10;99.90
4487;DHT22;2256;48.740;9.106;2023-02-27T02:30:30;-3.20;99.90
4487;DHT22;2256;48.740;9.106;2023-02-27T02:33:35;-3.10;99.90
4487;DHT22;2256;48.740;9.106;2023-02-27T02:39:33;-3.10;99.90
4487;DHT22;2256;48.740;9.106;2023-02-27T02:42:09;-3.20;99.90
4487;DHT22;2256;48.740;9.106;2023-02-27T02:44:51;-3.10;99.90
4487;DHT22;2256;48.740;9.106;2023-02-27T02:47:27;-3.20;99.90
4487;DHT22;2256;48.740;9.106;2023-02-27T02:50:02;-3.20;99.90
4487;DHT22;2256;48.740;9.106;2023-02-27T02:52:37;-3.20;99.90
4487;DHT22;2256;48.740;9.106;2023-02-27T02:55:10;-3.20;99.90
4487;DHT22;2256;48.740;9.106;2023-02-27T02:57:44;-3.20;99.90
4487;DHT22;2256;48.740;9.106;2023-02-27T03:00:15;-3.20;99.90
4487;DHT22;2256;48.740;9.106;2023-02-27T03:02:46;-3.10;99.90
4487;DHT22;2256;48.740;9.106;2023-02-27T03:05:19;-3.20;99.90
4487;DHT22;2256;48.740;9.106;2023-02-27T03:07:53;-3.10;99.90
4487;DHT22;2256;48.740;9.106;2023-02-27T03:10:25;-3.20;99.90
4487;DHT22;2256;48.740;9.106;2023-02-27T03:12:59;-3.10;99.90
4487;DHT22;2256;48.740;9.106;2023-02-27T03:15:29;-3.10;99.90
4487;DHT22;2256;48.740;9.106;2023-02-27T03:18:02;-3.10;99.90
4487;DHT22;2256;48.740;9.106;2023-02-27T03:20:34;-3.20;99.90
4487;DHT22;2256;48.740;9.106;2023-02-27T03:23:07;-3.20;99.90
4487;DHT22;2256;48.740;9.106;2023-02-27T03:25:38;-3.20;99.90
4487;DHT22;2256;48.740;9.106;2023-02-27T03:28:07;-3.20;99.90
4487;DHT22;2256;48.740;9.106;2023-02-27T03:30:37;-3.30;99.90
4487;DHT22;2256;48.740;9.106;2023-02-27T03:33:10;-3.20;99.90
4487;DHT22;2256;48.740;9.106;2023-02-27T03:35:43;-3.20;99.90
4487;DHT22;2256;48.740;9.106;2023-02-27T03:38:19;-3.30;99.90
4487;DHT22;2256;48.740;9.106;2023-02-27T03:40:53;-3.30;99.90
4487;DHT22;2256;48.740;9.106;2023-02-27T03:43:29;-3.30;99.90
4487;DHT22;2256;48.740;9.106;2023-02-27T03:46:03;-3.30;99.90
4487;DHT22;2256;48.740;9.106;2023-02-27T03:48:32;-3.20;99.90
4487;DHT22;2256;48.740;9.106;2023-02-27T03:50:59;-3.20;99.90
4487;DHT22;2256;48.740;9.106;2023-02-27T03:53:30;-3.30;99.90
4487;DHT22;2256;48.740;9.106;2023-02-27T03:56:03;-3.30;99.90
4487;DHT22;2256;48.740;9.106;2023-02-27T03:58:32;-3.30;99.90
4487;DHT22;2256;48.740;9.106;2023-02-27T04:00:59;-3.30;99.90
4487;DHT22;2256;48.740;9.106;2023-02-27T04:03:27;-3.20;99.90
4487;DHT22;2256;48.740;9.106;2023-02-27T04:05:57;-3.40;99.90
4487;DHT22;2256;48.740;9.106;2023-02-27T04:08:51;-3.50;99.90
4487;DHT22;2256;48.740;9.106;2023-02-27T04:11:33;-3.40;99.90
4487;DHT22;2256;48.740;9.106;2023-02-27T04:14:21;-3.40;99.90
4487;DHT22;2256;48.740;9.106;2023-02-27T04:16:59;-3.30;99.90
4487;DHT22;2256;48.740;9.106;2023-02-27T04:19:45;-3.40;99.90
4487;DHT22;2256;48.740;9.106;2023-02-27T04:22:25;-3.40;99.90
4487;DHT22;2256;48.740;9.106;2023-02-27T04:25:05;-3.30;99.90
4487;DHT22;2256;48.740;9.106;2023-02-27T04:27:43;-3.30;99.90
4487;DHT22;2256;48.740;9.106;2023-02-27T04:30:18;-3.30;99.90
4487;DHT22;2256;48.740;9.106;2023-02-27T04:32:53;-3.40;99.90
4487;DHT22;2256;48.740;9.106;2023-02-27T04:35:25;-3.40;99.90
4487;DHT22;2256;48.740;9.106;2023-02-27T04:37:57;-3.50;99.90
4487;DHT22;2256;48.740;9.106;2023-02-27T04:40:29;-3.40;99.90
4487;DHT22;2256;48.740;9.106;2023-02-27T04:43:01;-3.50;99.90
4487;DHT22;2256;48.740;9.106;2023-02-27T04:45:31;-3.50;99.90
4487;DHT22;2256;48.740;9.106;2023-02-27T04:48:02;-3.50;99.90
4487;DHT22;2256;48.740;9.106;2023-02-27T04:50:35;-3.40;99.90
4487;DHT22;2256;48.740;9.106;2023-02-27T04:53:10;-3.50;99.90
4487;DHT22;2256;48.740;9.106;2023-02-27T04:55:42;-3.50;99.90
4487;DHT22;2256;48.740;9.106;2023-02-27T04:58:15;-3.50;99.90
4487;DHT22;2256;48.740;9.106;2023-02-27T05:00:49;-3.50;99.90
4487;DHT22;2256;48.740;9.106;2023-02-27T05:03:22;-3.50;99.90
4487;DHT22;2256;48.740;9.106;2023-02-27T05:05:54;-3.50;99.90
4487;DHT22;2256;48.740;9.106;2023-02-27T05:08:28;-3.70;99.90
4487;DHT22;2256;48.740;9.106;2023-02-27T05:11:02;-3.50;99.90
4487;DHT22;2256;48.740;9.106;2023-02-27T05:13:34;-3.40;99.90
4487;DHT22;2256;48.740;9.106;2023-02-27T05:16:10;-3.50;99.90
4487;DHT22;2256;48.740;9.106;2023-02-27T05:18:38;-3.40;99.90
4487;DHT22;2256;48.740;9.106;2023-02-27T05:21:12;-3.40;99.90
4487;DHT22;2256;48.740;9.106;2023-02-27T05:23:46;-3.40;99.90
4487;DHT22;2256;48.740;9.106;2023-02-27T05:26:18;-3.50;99.90
4487;DHT22;2256;48.740;9.106;2023-02-27T05:28:53;-3.60;99.90
4487;DHT22;2256;48.740;9.106;2023-02-27T05:31:27;-3.60;99.90
4487;DHT22;2256;48.740;9.106;2023-02-27T05:34:01;-3.60;99.90
4487;DHT22;2256;48.740;9.106;2023-02-27T05:36:38;-3.60;99.90
4487;DHT22;2256;48.740;9.106;2023-02-27T05:39:09;-3.50;99.90
4487;DHT22;2256;48.740;9.106;2023-02-27T05:41:41;-3.60;99.90
4487;DHT22;2256;48.740;9.106;2023-02-27T05:44:13;-3.60;99.90
4487;DHT22;2256;48.740;9.106;2023-02-27T05:46:45;-3.60;99.90
4487;DHT22;2256;48.740;9.106;2023-02-27T05:49:17;-3.70;99.90
4487;DHT22;2256;48.740;9.106;2023-02-27T05:51:48;-3.60;99.90
4487;DHT22;2256;48.740;9.106;2023-02-27T05:54:21;-3.70;99.90
4487;DHT22;2256;48.740;9.106;2023-02-27T05:56:53;-3.70;99.90
4487;DHT22;2256;48.740;9.106;2023-02-27T05:59:28;-3.70;99.90
4487;DHT22;2256;48.740;9.106;2023-02-27T06:01:57;-3.60;99.90
4487;DHT22;2256;48.740;9.106;2023-02-27T06:04:24;-3.70;99.90
4487;DHT22;2256;48.740;9.106;2023-02-27T06:06:51;-3.70;99.90
4487;DHT22;2256;48.740;9.106;2023-02-27T06:09:20;-3.80;99.90
4487;DHT22;2256;48.740;9.106;2023-02-27T06:11:48;-3.70;99.90
4487;DHT22;2256;48.740;9.106;2023-02-27T06:14:17;-3.60;99.90
4487;DHT22;2256;48.740;9.106;2023-02-27T06:16:45;-3.70;99.90
4487;DHT22;2256;48.740;9.106;2023-02-27T06:19:12;-3.70;99.90
4487;DHT22;2256;48.740;9.106;2023-02-27T06:21:39;-3.70;99.90
4487;DHT22;2256;48.740;9.106;2023-02-27T06:24:06;-3.80;99.90
4487;DHT22;2256;48.740;9.106;2023-02-27T06:26:33;-3.80;99.90
4487;DHT22;2256;48.740;9.106;2023-02-27T06:29:00;-3.80;99.90
4487;DHT22;2256;48.740;9.106;2023-02-27T06:31:33;-3.70;99.90
4487;DHT22;2256;48.740;9.106;2023-02-27T06:34:04;-3.80;99.90
4487;DHT22;2256;48.740;9.106;2023-02-27T06:36:31;-3.80;99.90
4487;DHT22;2256;48.740;9.106;2023-02-27T06:39:04;-3.80;99.90
4487;DHT22;2256;48.740;9.106;2023-02-27T06:41:31;-3.70;99.90
4487;DHT22;2256;48.740;9.106;2023-02-27T06:43:58;-3.60;99.90
4487;DHT22;2256;48.740;9.106;2023-02-27T06:46:25;-3.50;99.90
4487;DHT22;2256;48.740;9.106;2023-02-27T06:48:52;-3.40;99.90
4487;DHT22;2256;48.740;9.106;2023-02-27T06:51:20;-3.40;99.90
4487;DHT22;2256;48.740;9.106;2023-02-27T06:53:47;-3.40;99.90
4487;DHT22;2256;48.740;9.106;2023-02-27T06:56:14;-3.40;99.90
4487;DHT22;2256;48.740;9.106;2023-02-27T06:58:41;-3.40;99.90
4487;DHT22;2256;48.740;9.106;2023-02-27T07:01:08;-3.10;99.90
4487;DHT22;2256;48.740;9.106;2023-02-27T07:03:35;-3.00;99.90
4487;DHT22;2256;48.740;9.106;2023-02-27T07:06:02;-2.90;99.90
4487;DHT22;2256;48.740;9.106;2023-02-27T07:08:32;-2.90;99.90
4487;DHT22;2256;48.740;9.106;2023-02-27T07:11:00;-2.90;99.90
4487;DHT22;2256;48.740;9.106;2023-02-27T07:13:28;-2.90;99.90
4487;DHT22;2256;48.740;9.106;2023-02-27T07:15:55;-2.90;99.90
4487;DHT22;2256;48.740;9.106;2023-02-27T07:18:24;-2.90;99.90
4487;DHT22;2256;48.740;9.106;2023-02-27T07:20:51;-2.90;99.90
4487;DHT22;2256;48.740;9.106;2023-02-27T07:23:20;-2.70;99.90
4487;DHT22;2256;48.740;9.106;2023-02-27T07:25:51;-2.60;99.90
4487;DHT22;2256;48.740;9.106;2023-02-27T07:28:19;-2.40;99.90
4487;DHT22;2256;48.740;9.106;2023-02-27T07:30:46;-2.50;99.90
4487;DHT22;2256;48.740;9.106;2023-02-27T07:33:14;-2.40;99.90
4487;DHT22;2256;48.740;9.106;2023-02-27T07:35:41;-2.20;99.90
4487;DHT22;2256;48.740;9.106;2023-02-27T07:38:08;-1.90;99.90
4487;DHT22;2256;48.740;9.106;2023-02-27T07:40:36;-1.70;99.90
4487;DHT22;2256;48.740;9.106;2023-02-27T07:43:04;-1.30;99.90
4487;DHT22;2256;48.740;9.106;2023-02-27T07:45:31;-0.50;99.90
4487;DHT22;2256;48.740;9.106;2023-02-27T07:47:58;-0.20;99.90
4487;DHT22;2256;48.740;9.106;2023-02-27T07:50:25;-0.60;99.90
4487;DHT22;2256;48.740;9.106;2023-02-27T07:52:53;-0.90;99.90
4487;DHT22;2256;48.740;9.106;2023-02-27T07:55:20;-0.50;99.90
4487;DHT22;2256;48.740;9.106;2023-02-27T07:57:53;-0.20;99.90
4487;DHT22;2256;48.740;9.106;2023-02-27T08:00:22;-0.20;99.90
4487;DHT22;2256;48.740;9.106;2023-02-27T08:02:49;-0.30;99.90
4487;DHT22;2256;48.740;9.106;2023-02-27T08:05:16;-0.60;99.90
4487;DHT22;2256;48.740;9.106;2023-02-27T08:07:43;-0.80;99.90
4487;DHT22;2256;48.740;9.106;2023-02-27T08:10:11;-0.90;99.90
4487;DHT22;2256;48.740;9.106;2023-02-27T08:12:39;-0.80;99.90
4487;DHT22;2256;48.740;9.106;2023-02-27T08:15:07;-0.60;99.90
4487;DHT22;2256;48.740;9.106;2023-02-27T08:17:36;-0.40;99.90
4487;DHT22;2256;48.740;9.106;2023-02-27T08:20:03;-0.50;99.90
4487;DHT22;2256;48.740;9.106;2023-02-27T08:22:31;-0.20;99.90
4487;DHT22;2256;48.740;9.106;2023-02-27T08:24:58;-0.40;99.90
4487;DHT22;2256;48.740;9.106;2023-02-27T08:27:26;-0.20;99.90
4487;DHT22;2256;48.740;9.106;2023-02-27T08:29:53;-0.10;99.90
4487;DHT22;2256;48.740;9.106;2023-02-27T08:32:20;-0.20;99.90
4487;DHT22;2256;48.740;9.106;2023-02-27T08:34:49;-0.10;99.90
4487;DHT22;2256;48.740;9.106;2023-02-27T08:37:22;0.20;99.90
4487;DHT22;2256;48.740;9.106;2023-02-27T08:39:54;0.10;99.90
4487;DHT22;2256;48.740;9.106;2023-02-27T08:42:20;0.30;99.90
4487;DHT22;2256;48.740;9.106;2023-02-27T08:44:47;0.70;99.90
4487;DHT22;2256;48.740;9.106;2023-02-27T08:47:16;1.30;99.90
4487;DHT22;2256;48.740;9.106;2023-02-27T08:49:45;1.70;99.50
4487;DHT22;2256;48.740;9.106;2023-02-27T08:52:17;2.40;98.90
4487;DHT22;2256;48.740;9.106;2023-02-27T08:54:46;2.70;97.80
4487;DHT22;2256;48.740;9.106;2023-02-27T08:57:13;3.00;97.60
4487;DHT22;2256;48.740;9.106;2023-02-27T08:59:40;2.90;96.60
4487;DHT22;2256;48.740;9.106;2023-02-27T09:02:08;3.10;96.40
4487;DHT22;2256;48.740;9.106;2023-02-27T09:04:35;3.70;96.00
4487;DHT22;2256;48.740;9.106;2023-02-27T09:07:02;3.80;95.20
4487;DHT22;2256;48.740;9.106;2023-02-27T09:09:30;3.90;94.90
4487;DHT22;2256;48.740;9.106;2023-02-27T09:11:57;3.80;94.40
4487;DHT22;2256;48.740;9.106;2023-02-27T09:14:23;3.90;94.20
4487;DHT22;2256;48.740;9.106;2023-02-27T09:16:50;4.10;94.00
4487;DHT22;2256;48.740;9.106;2023-02-27T09:19:17;4.20;93.60
4487;DHT22;2256;48.740;9.106;2023-02-27T09:21:44;4.40;93.60
4487;DHT22;2256;48.740;9.106;2023-02-27T09:24:10;4.50;93.10
4487;DHT22;2256;48.740;9.106;2023-02-27T09:26:39;4.40;93.30
4487;DHT22;2256;48.740;9.106;2023-02-27T09:29:06;5.30;92.80
4487;DHT22;2256;48.740;9.106;2023-02-27T09:31:32;4.60;92.10
4487;DHT22;2256;48.740;9.106;2023-02-27T09:33:59;4.60;92.60
4487;DHT22;2256;48.740;9.106;2023-02-27T09:36:27;4.80;92.60
4487;DHT22;2256;48.740;9.106;2023-02-27T09:38:54;5.10;92.30
4487;DHT22;2256;48.740;9.106;2023-02-27T09:41:36;5.50;91.20
4487;DHT22;2256;48.740;9.106;2023-02-27T09:44:16;5.40;91.20
4487;DHT22;2256;48.740;9.106;2023-02-27T09:46:46;5.50;91.10
4487;DHT22;2256;48.740;9.106;2023-02-27T09:49:16;5.00;91.30
4487;DHT22;2256;48.740;9.106;2023-02-27T09:51:44;5.40;91.40
4487;DHT22;2256;48.740;9.106;2023-02-27T09:54:11;4.70;91.10
4487;DHT22;2256;48.740;9.106;2023-02-27T09:56:44;4.10;91.70
4487;DHT22;2256;48.740;9.106;2023-02-27T09:59:19;3.60;92.60
4487;DHT22;2256;48.740;9.106;2023-02-27T10:01:55;3.10;92.60
4487;DHT22;2256;48.740;9.106;2023-02-27T10:04:35;2.80;92.40
4487;DHT22;2256;48.740;9.106;2023-02-27T10:07:12;2.40;92.60
4487;DHT22;2256;48.740;9.106;2023-02-27T10:09:50;2.20;93.20
4487;DHT22;2256;48.740;9.106;2023-02-27T10:12:33;2.00;92.30
4487;DHT22;2256;48.740;9.106;2023-02-27T10:15:09;1.70;91.60
4487;DHT22;2256;48.740;9.106;2023-02-27T10:17:41;1.50;91.00
4487;DHT22;2256;48.740;9.106;2023-02-27T10:20:17;1.50;91.50
4487;DHT22;2256;48.740;9.106;2023-02-27T10:22:46;1.60;90.90
4487;DHT22;2256;48.740;9.106;2023-02-27T10:25:16;1.40;90.50
4487;DHT22;2256;48.740;9.106;2023-02-27T10:27:45;1.30;90.50
4487;DHT22;2256;48.740;9.106;2023-02-27T10:30:20;1.40;90.40
4487;DHT22;2256;48.740;9.106;2023-02-27T10:32:53;1.40;89.80
4487;DHT22;2256;48.740;9.106;2023-02-27T10:35:26;1.50;90.50
4487;DHT22;2256;48.740;9.106;2023-02-27T10:37:58;1.50;90.10
4487;DHT22;2256;48.740;9.106;2023-02-27T10:40:26;1.60;89.90
4487;DHT22;2256;48.740;9.106;2023-02-27T10:42:59;1.60;90.00
4487;DHT22;2256;48.740;9.106;2023-02-27T10:45:28;1.60;89.20
4487;DHT22;2256;48.740;9.106;2023-02-27T10:47:56;1.70;89.00
4487;DHT22;2256;48.740;9.106;2023-02-27T10:50:26;1.70;88.60
4487;DHT22;2256;48.740;9.106;2023-02-27T10:52:55;1.80;88.10
4487;DHT22;2256;48.740;9.106;2023-02-27T10:55:26;1.70;88.70
4487;DHT22;2256;48.740;9.106;2023-02-27T10:57:55;1.70;87.70
4487;DHT22;2256;48.740;9.106;2023-02-27T11:00:31;1.80;88.20
4487;DHT22;2256;48.740;9.106;2023-02-27T11:03:00;2.00;87.70
4487;DHT22;2256;48.740;9.106;2023-02-27T11:05:30;2.00;87.80
4487;DHT22;2256;48.740;9.106;2023-02-27T11:08:12;2.20;86.50
4487;DHT22;2256;48.740;9.106;2023-02-27T11:10:53;2.40;86.90
4487;DHT22;2256;48.740;9.106;2023-02-27T11:13:21;2.50;85.50
4487;DHT22;2256;48.740;9.106;2023-02-27T11:16:05;2.30;84.70
4487;DHT22;2256;48.740;9.106;2023-02-27T11:18:33;2.30;84.80
4487;DHT22;2256;48.740;9.106;2023-02-27T11:21:19;2.50;85.60
4487;DHT22;2256;48.740;9.106;2023-02-27T11:23:57;2.60;86.90
4487;DHT22;2256;48.740;9.106;2023-02-27T11:26:27;2.40;86.30
4487;DHT22;2256;48.740;9.106;2023-02-27T11:29:12;2.50;86.70
4487;DHT22;2256;48.740;9.106;2023-02-27T11:31:46;2.10;86.90
4487;DHT22;2256;48.740;9.106;2023-02-27T11:34:29;2.20;86.80
4487;DHT22;2256;48.740;9.106;2023-02-27T11:36:59;2.10;86.60
4487;DHT22;2256;48.740;9.106;2023-02-27T11:39:34;2.10;86.20
4487;DHT22;2256;48.740;9.106;2023-02-27T11:42:12;2.00;86.30
4487;DHT22;2256;48.740;9.106;2023-02-27T11:44:48;2.00;87.10
4487;DHT22;2256;48.740;9.106;2023-02-27T11:47:20;1.90;87.10
4487;DHT22;2256;48.740;9.106;2023-02-27T11:52:52;2.20;86.10
4487;DHT22;2256;48.740;9.106;2023-02-27T11:55:25;2.30;85.90
4487;DHT22;2256;48.740;9.106;2023-02-27T11:57:59;2.30;86.50
4487;DHT22;2256;48.740;9.106;2023-02-27T12:00:30;2.20;85.80
4487;DHT22;2256;48.740;9.106;2023-02-27T12:03:04;2.20;86.70
4487;DHT22;2256;48.740;9.106;2023-02-27T12:05:34;2.30;87.10
4487;DHT22;2256;48.740;9.106;2023-02-27T12:08:10;2.10;86.50
4487;DHT22;2256;48.740;9.106;2023-02-27T12:10:46;2.20;87.70
4487;DHT22;2256;48.740;9.106;2023-02-27T12:13:18;2.30;87.40
4487;DHT22;2256;48.740;9.106;2023-02-27T12:15:50;2.10;86.60
4487;DHT22;2256;48.740;9.106;2023-02-27T12:18:23;1.90;87.00
4487;DHT22;2256;48.740;9.106;2023-02-27T12:20:56;1.80;88.00
4487;DHT22;2256;48.740;9.106;2023-02-27T12:23:30;2.00;88.70
4487;DHT22;2256;48.740;9.106;2023-02-27T12:26:03;2.30;89.20
4487;DHT22;2256;48.740;9.106;2023-02-27T12:28:45;2.40;87.90
4487;DHT22;2256;48.740;9.106;2023-02-27T12:31:39;2.50;87.80
4487;DHT22;2256;48.740;9.106;2023-02-27T12:34:16;2.80;88.30
4487;DHT22;2256;48.740;9.106;2023-02-27T12:36:46;2.80;87.20
4487;DHT22;2256;48.740;9.106;2023-02-27T12:39:18;2.80;87.10
4487;DHT22;2256;48.740;9.106;2023-02-27T12:42:00;2.90;86.90
4487;DHT22;2256;48.740;9.106;2023-02-27T12:44:41;2.90;86.90
4487;DHT22;2256;48.740;9.106;2023-02-27T12:47:21;2.80;86.10
4487;DHT22;2256;48.740;9.106;2023-02-27T12:49:55;2.70;85.30
4487;DHT22;2256;48.740;9.106;2023-02-27T12:52:36;2.60;86.70
4487;DHT22;2256;48.740;9.106;2023-02-27T12:55:12;2.70;87.10
4487;DHT22;2256;48.740;9.106;2023-02-27T12:57:52;2.60;86.40
4487;DHT22;2256;48.740;9.106;2023-02-27T13:00:25;2.30;86.60
4487;DHT22;2256;48.740;9.106;2023-02-27T13:03:02;2.10;86.80
4487;DHT22;2256;48.740;9.106;2023-02-27T13:05:41;1.90;87.30
4487;DHT22;2256;48.740;9.106;2023-02-27T13:08:33;1.90;88.00
4487;DHT22;2256;48.740;9.106;2023-02-27T13:11:10;2.10;88.20
4487;DHT22;2256;48.740;9.106;2023-02-27T13:13:43;2.40;89.00
4487;DHT22;2256;48.740;9.106;2023-02-27T13:16:15;2.70;86.30
4487;DHT22;2256;48.740;9.106;2023-02-27T13:18:47;2.60;84.70
4487;DHT22;2256;48.740;9.106;2023-02-27T13:21:27;2.50;85.40
4487;DHT22;2256;48.740;9.106;2023-02-27T13:24:03;2.40;86.60
4487;DHT22;2256;48.740;9.106;2023-02-27T13:26:37;2.20;87.00
4487;DHT22;2256;48.740;9.106;2023-02-27T13:29:05;2.10;87.10
4487;DHT22;2256;48.740;9.106;2023-02-27T13:31:36;1.90;86.80
4487;DHT22;2256;48.740;9.106;2023-02-27T13:34:13;1.70;87.70
4487;DHT22;2256;48.740;9.106;2023-02-27T13:36:46;1.60;88.10
4487;DHT22;2256;48.740;9.106;2023-02-27T13:39:38;1.60;88.90
4487;DHT22;2256;48.740;9.106;2023-02-27T13:45:48;2.30;87.60
4487;DHT22;2256;48.740;9.106;2023-02-27T13:48:38;2.60;86.70
4487;DHT22;2256;48.740;9.106;2023-02-27T13:51:08;2.40;86.40
4487;DHT22;2256;48.740;9.106;2023-02-27T13:53:39;2.20;87.10
4487;DHT22;2256;48.740;9.106;2023-02-27T13:56:19;1.90;88.30
4487;DHT22;2256;48.740;9.106;2023-02-27T13:58:47;1.90;88.10
4487;DHT22;2256;48.740;9.106;2023-02-27T14:01:16;1.80;87.80
4487;DHT22;2256;48.740;9.106;2023-02-27T14:03:52;1.90;87.90
4487;DHT22;2256;48.740;9.106;2023-02-27T14:06:20;1.90;88.10
4487;DHT22;2256;48.740;9.106;2023-02-27T14:08:52;1.60;88.00
4487;DHT22;2256;48.740;9.106;2023-02-27T14:11:24;1.70;88.50
4487;DHT22;2256;48.740;9.106;2023-02-27T14:14:04;2.00;88.80
4487;DHT22;2256;48.740;9.106;2023-02-27T14:16:52;2.20;89.30
4487;DHT22;2256;48.740;9.106;2023-02-27T14:19:46;2.50;87.80
4487;DHT22;2256;48.740;9.106;2023-02-27T14:22:33;2.60;87.00
4487;DHT22;2256;48.740;9.106;2023-02-27T14:25:12;2.50;88.30
4487;DHT22;2256;48.740;9.106;2023-02-27T14:27:47;2.40;88.90
4487;DHT22;2256;48.740;9.106;2023-02-27T14:30:25;2.10;89.40
4487;DHT22;2256;48.740;9.106;2023-02-27T14:32:56;2.00;89.90
4487;DHT22;2256;48.740;9.106;2023-02-27T14:35:23;2.10;89.70
4487;DHT22;2256;48.740;9.106;2023-02-27T14:37:51;2.00;88.70
4487;DHT22;2256;48.740;9.106;2023-02-27T14:40:21;1.90;88.40
4487;DHT22;2256;48.740;9.106;2023-02-27T14:42:56;1.70;88.70
4487;DHT22;2256;48.740;9.106;2023-02-27T14:45:28;1.70;89.00
4487;DHT22;2256;48.740;9.106;2023-02-27T14:47:56;1.90;89.50
4487;DHT22;2256;48.740;9.106;2023-02-27T14:50:26;2.20;89.20
4487;DHT22;2256;48.740;9.106;2023-02-27T14:52:54;2.10;88.90
4487;DHT22;2256;48.740;9.106;2023-02-27T14:55:24;1.90;90.00
4487;DHT22;2256;48.740;9.106;2023-02-27T14:57:59;1.70;90.40
4487;DHT22;2256;48.740;9.106;2023-02-27T15:00:31;1.70;90.60
4487;DHT22;2256;48.740;9.106;2023-02-27T15:02:59;1.70;90.00
4487;DHT22;2256;48.740;9.106;2023-02-27T15:05:28;1.60;89.70
4487;DHT22;2256;48.740;9.106;2023-02-27T15:07:56;1.50;89.40
4487;DHT22;2256;48.740;9.106;2023-02-27T15:10:27;1.40;90.00
4487;DHT22;2256;48.740;9.106;2023-02-27T15:12:56;1.40;88.60
4487;DHT22;2256;48.740;9.106;2023-02-27T15:15:25;1.40;89.30
4487;DHT22;2256;48.740;9.106;2023-02-27T15:17:54;1.40;89.80
4487;DHT22;2256;48.740;9.106;2023-02-27T15:20:27;1.40;90.00
4487;DHT22;2256;48.740;9.106;2023-02-27T15:22:54;1.40;90.20
4487;DHT22;2256;48.740;9.106;2023-02-27T15:25:32;1.50;90.30
4487;DHT22;2256;48.740;9.106;2023-02-27T15:28:06;1.30;90.30
4487;DHT22;2256;48.740;9.106;2023-02-27T15:30:34;1.20;90.30
4487;DHT22;2256;48.740;9.106;2023-02-27T15:33:01;1.10;90.10
4487;DHT22;2256;48.740;9.106;2023-02-27T15:35:35;1.10;89.90
4487;DHT22;2256;48.740;9.106;2023-02-27T15:38:04;1.00;89.90
4487;DHT22;2256;48.740;9.106;2023-02-27T15:40:34;1.00;89.70
4487;DHT22;2256;48.740;9.106;2023-02-27T15:43:02;1.00;90.10
4487;DHT22;2256;48.740;9.106;2023-02-27T15:45:31;1.00;90.10
4487;DHT22;2256;48.740;9.106;2023-02-27T15:47:59;0.90;90.10
4487;DHT22;2256;48.740;9.106;2023-02-27T15:50:30;0.90;90.30
4487;DHT22;2256;48.740;9.106;2023-02-27T15:53:03;0.80;90.40
4487;DHT22;2256;48.740;9.106;2023-02-27T15:55:34;0.70;90.60
4487;DHT22;2256;48.740;9.106;2023-02-27T15:58:14;0.70;90.60
4487;DHT22;2256;48.740;9.106;2023-02-27T16:00:43;0.80;90.60
4487;DHT22;2256;48.740;9.106;2023-02-27T16:03:12;0.70;90.00
4487;DHT22;2256;48.740;9.106;2023-02-27T16:05:41;0.70;90.10
4487;DHT22;2256;48.740;9.106;2023-02-27T16:08:16;0.60;90.10
4487;DHT22;2256;48.740;9.106;2023-02-27T16:10:47;0.70;90.20
4487;DHT22;2256;48.740;9.106;2023-02-27T16:13:19;0.60;90.30
4487;DHT22;2256;48.740;9.106;2023-02-27T16:15:57;0.70;90.20
4487;DHT22;2256;48.740;9.106;2023-02-27T16:18:28;0.70;90.40
4487;DHT22;2256;48.740;9.106;2023-02-27T16:21:08;0.70;90.30
4487;DHT22;2256;48.740;9.106;2023-02-27T16:23:35;0.50;90.50
4487;DHT22;2256;48.740;9.106;2023-02-27T16:26:19;0.60;90.30
4487;DHT22;2256;48.740;9.106;2023-02-27T16:28:52;0.50;90.40
4487;DHT22;2256;48.740;9.106;2023-02-27T16:31:24;0.50;90.10
4487;DHT22;2256;48.740;9.106;2023-02-27T16:33:58;0.50;90.10
4487;DHT22;2256;48.740;9.106;2023-02-27T16:36:27;0.50;90.10
4487;DHT22;2256;48.740;9.106;2023-02-27T16:38:54;0.40;90.20
4487;DHT22;2256;48.740;9.106;2023-02-27T16:41:24;0.50;90.50
4487;DHT22;2256;48.740;9.106;2023-02-27T16:43:52;0.50;90.50
4487;DHT22;2256;48.740;9.106;2023-02-27T16:46:20;0.50;90.90
4487;DHT22;2256;48.740;9.106;2023-02-27T16:48:51;0.50;90.60
4487;DHT22;2256;48.740;9.106;2023-02-27T16:51:21;0.60;91.20
4487;DHT22;2256;48.740;9.106;2023-02-27T16:53:50;0.60;91.30